sensor_id;sensor_type;location;lat;lon;timestamp;P1;P2;P0
74430;PMS7003;62863;52.062;23.764;2023-09-18T00:01:30;15;13;9.6
74430;PMS7003;62863;52.062;23.764;2023-09-18T00:06:26;16.4;13.4;9.8
74430;PMS7003;62863;52.062;23.764;2023-09-18T00:10:54;14;12.2;8.4
74430;PMS7003;62863;52.062;23.764;2023-09-18T00:15:48;18;16;11
74430;PMS7003;62863;52.062;23.764;2023-09-18T00:20:54;17;15.3;11
74430;PMS7003;62863;52.062;23.764;2023-09-18T00:25:48;19;17.2;12
74430;PMS7003;62863;52.062;23.764;2023-09-18T00:30:56;14.8;13.8;10.2
74430;PMS7003;62863;52.062;23.764;2023-09-18T00:36:08;19.2;16.6;11.6
74430;PMS7003;62863;52.062;23.764;2023-09-18T00:41:28;18.2;16;11.2
74430;PMS7003;62863;52.062;23.764;2023-09-18T00:46:20;18;16;11
74430;PMS7003;62863;52.062;23.764;2023-09-18T00:51:28;19.8;16.2;10.6
74430;PMS7003;62863;52.062;23.764;2023-09-18T00:56:30;19.6;17.4;11.8
74430;PMS7003;62863;52.062;23.764;2023-09-18T01:01:00;20;18;12.6
74430;PMS7003;62863;52.062;23.764;2023-09-18T01:06:00;19.8;17.6;12.6
74430;PMS7003;62863;52.062;23.764;2023-09-18T01:10:56;17.4;16.6;11.8
74430;PMS7003;62863;52.062;23.764;2023-09-18T01:15:54;15.8;14.8;11
74430;PMS7003;62863;52.062;23.764;2023-09-18T01:21:22;21;17.5;12
74430;PMS7003;62863;52.062;23.764;2023-09-18T01:25:48;25.2;21.2;14
74430;PMS7003;62863;52.062;23.764;2023-09-18T01:31:30;40.6;34.8;22.2
74430;PMS7003;62863;52.062;23.764;2023-09-18T01:36:20;36.2;30.6;20.8
74430;PMS7003;62863;52.062;23.764;2023-09-18T01:41:30;28.2;25;16.4
74430;PMS7003;62863;52.062;23.764;2023-09-18T01:46:30;24;21.8;15.2
74430;PMS7003;62863;52.062;23.764;2023-09-18T01:50:54;28;24.6;17.2
74430;PMS7003;62863;52.062;23.764;2023-09-18T01:55:48;17.2;15;10
74430;PMS7003;62863;52.062;23.764;2023-09-18T02:00:48;15.8;14;10.6
74430;PMS7003;62863;52.062;23.764;2023-09-18T02:05:48;16;13.2;10
74430;PMS7003;62863;52.062;23.764;2023-09-18T02:11:14;15.4;14;10.2
74430;PMS7003;62863;52.062;23.764;2023-09-18T02:16:08;15.6;13.6;10
74430;PMS7003;62863;52.062;23.764;2023-09-18T02:21:30;14.3;13.3;9
74430;PMS7003;62863;52.062;23.764;2023-09-18T02:26:23;18.2;14.4;10
74430;PMS7003;62863;52.062;23.764;2023-09-18T02:31:30;18.6;16.2;11.4
74430;PMS7003;62863;52.062;23.764;2023-09-18T02:36:14;16.2;13.8;9.2
74430;PMS7003;62863;52.062;23.764;2023-09-18T02:41:16;16.2;14.4;9.8
74430;PMS7003;62863;52.062;23.764;2023-09-18T02:45:54;17;14.4;9.8
74430;PMS7003;62863;52.062;23.764;2023-09-18T02:51:04;16.4;14.4;9.8
74430;PMS7003;62863;52.062;23.764;2023-09-18T02:56:08;17.6;15.4;10.2
74430;PMS7003;62863;52.062;23.764;2023-09-18T03:01:30;18;15.4;10.6
74430;PMS7003;62863;52.062;23.764;2023-09-18T03:06:08;17.6;16;11.6
74430;PMS7003;62863;52.062;23.764;2023-09-18T03:10:58;16.4;15;10.4
74430;PMS7003;62863;52.062;23.764;2023-09-18T03:16:22;16.4;14.6;10.2
74430;PMS7003;62863;52.062;23.764;2023-09-18T03:21:14;16.5;14.5;9.8
74430;PMS7003;62863;52.062;23.764;2023-09-18T03:26:30;18.4;16.4;10.2
74430;PMS7003;62863;52.062;23.764;2023-09-18T03:31:16;14;13.2;9.6
74430;PMS7003;62863;52.062;23.764;2023-09-18T03:35:54;16.8;13.8;9.2
74430;PMS7003;62863;52.062;23.764;2023-09-18T03:40:48;17.2;14.8;10
74430;PMS7003;62863;52.062;23.764;2023-09-18T03:46:08;16.4;15;10.6
74430;PMS7003;62863;52.062;23.764;2023-09-18T03:51:30;16;13.8;9.4
74430;PMS7003;62863;52.062;23.764;2023-09-18T03:56:08;16;14.2;10
74430;PMS7003;62863;52.062;23.764;2023-09-18T04:01:30;15.8;14.2;9.8
74430;PMS7003;62863;52.062;23.764;2023-09-18T04:05:56;16.2;14.8;10.6
74430;PMS7003;62863;52.062;23.764;2023-09-18T04:11:16;18.2;15.6;10.2
74430;PMS7003;62863;52.062;23.764;2023-09-18T04:16:28;15.2;12.8;9
74430;PMS7003;62863;52.062;23.764;2023-09-18T04:21:14;16.3;14.3;9.5
74430;PMS7003;62863;52.062;23.764;2023-09-18T04:25:50;17.2;14.8;10
74430;PMS7003;62863;52.062;23.764;2023-09-18T04:30:56;16.2;13.4;9.4
74430;PMS7003;62863;52.062;23.764;2023-09-18T04:36:10;18.6;14.8;10.6
74430;PMS7003;62863;52.062;23.764;2023-09-18T04:41:32;14.4;13;10
74430;PMS7003;62863;52.062;23.764;2023-09-18T04:46:10;15.2;12.6;9.6
74430;PMS7003;62863;52.062;23.764;2023-09-18T04:50:56;17.2;15.8;12
74430;PMS7003;62863;52.062;23.764;2023-09-18T04:56:06;16.6;12.4;10
74430;PMS7003;62863;52.062;23.764;2023-09-18T05:01:18;15.2;13.2;10
74430;PMS7003;62863;52.062;23.764;2023-09-18T05:06:32;18.6;16;12.6
74430;PMS7003;62863;52.062;23.764;2023-09-18T05:11:18;22.6;20.8;15.6
74430;PMS7003;62863;52.062;23.764;2023-09-18T05:15:50;17.5;16.3;11.5
74430;PMS7003;62863;52.062;23.764;2023-09-18T05:21:06;13.5;12.5;9.5
74430;PMS7003;62863;52.062;23.764;2023-09-18T05:26:10;16;14.6;11
74430;PMS7003;62863;52.062;23.764;2023-09-18T05:31:18;18.8;16.6;11.6
74430;PMS7003;62863;52.062;23.764;2023-09-18T05:36:10;19;15;10.8
74430;PMS7003;62863;52.062;23.764;2023-09-18T05:40:50;16.4;14.2;10.6
74430;PMS7003;62863;52.062;23.764;2023-09-18T05:46:16;20.2;17;11.6
74430;PMS7003;62863;52.062;23.764;2023-09-18T05:51:18;16.2;15;10.4
74430;PMS7003;62863;52.062;23.764;2023-09-18T05:56:33;16.6;14.2;10.8
74430;PMS7003;62863;52.062;23.764;2023-09-18T06:01:18;15.8;14.8;11
74430;PMS7003;62863;52.062;23.764;2023-09-18T06:06:02;15.2;12.8;10
74430;PMS7003;62863;52.062;23.764;2023-09-18T06:11:06;16;15;10.6
74430;PMS7003;62863;52.062;23.764;2023-09-18T06:16:12;12.6;11.6;8.8
74430;PMS7003;62863;52.062;23.764;2023-09-18T06:21:32;14;12.8;9.5
74430;PMS7003;62863;52.062;23.764;2023-09-18T06:26:10;13;11.2;8.2
74430;PMS7003;62863;52.062;23.764;2023-09-18T06:31:08;11;10;8
74430;PMS7003;62863;52.062;23.764;2023-09-18T06:36:22;11.6;11.4;8.8
74430;PMS7003;62863;52.062;23.764;2023-09-18T06:41:18;12.4;10;7.8
74430;PMS7003;62863;52.062;23.764;2023-09-18T06:46:30;8.8;7.8;6.2
74430;PMS7003;62863;52.062;23.764;2023-09-18T06:51:18;9.6;9.6;7.6
74430;PMS7003;62863;52.062;23.764;2023-09-18T06:55:50;8.8;8.4;6.6
74430;PMS7003;62863;52.062;23.764;2023-09-18T07:01:24;8.8;8.8;7
74430;PMS7003;62863;52.062;23.764;2023-09-18T07:06:10;20;17.6;12.2
74430;PMS7003;62863;52.062;23.764;2023-09-18T07:11:32;10.8;10;7.8
74430;PMS7003;62863;52.062;23.764;2023-09-18T07:15:56;10.2;9.6;7.6
74430;PMS7003;62863;52.062;23.764;2023-09-18T07:20:50;11.8;10.8;8.3
74430;PMS7003;62863;52.062;23.764;2023-09-18T07:26:22;8.2;8;6.2
74430;PMS7003;62863;52.062;23.764;2023-09-18T07:31:18;7.6;7.6;6
74430;PMS7003;62863;52.062;23.764;2023-09-18T07:36:32;11.4;10.8;7.6
74430;PMS7003;62863;52.062;23.764;2023-09-18T07:41:31;9.4;8.2;6.4
74430;PMS7003;62863;52.062;23.764;2023-09-18T07:45:50;9;8.8;6.2
74430;PMS7003;62863;52.062;23.764;2023-09-18T07:50:50;8.8;8.8;7.6
74430;PMS7003;62863;52.062;23.764;2023-09-18T07:56:10;10.6;9.8;7.6
74430;PMS7003;62863;52.062;23.764;2023-09-18T08:01:32;8;6.4;5
74430;PMS7003;62863;52.062;23.764;2023-09-18T08:06:04;9;8.6;6.6
74430;PMS7003;62863;52.062;23.764;2023-09-18T08:10:50;9.8;8.6;6.4
74430;PMS7003;62863;52.062;23.764;2023-09-18T08:16:22;9.6;8.6;6.4
74430;PMS7003;62863;52.062;23.764;2023-09-18T08:21:04;12.4;10.6;8.4
74430;PMS7003;62863;52.062;23.764;2023-09-18T08:26:32;12;10.5;7.8
74430;PMS7003;62863;52.062;23.764;2023-09-18T08:31:18;11.2;10.2;7.6
74430;PMS7003;62863;52.062;23.764;2023-09-18T08:35:56;12;10.6;7.6
74430;PMS7003;62863;52.062;23.764;2023-09-18T08:41:08;12;10.4;7.2
74430;PMS7003;62863;52.062;23.764;2023-09-18T08:46:04;9.4;8.6;6.6
74430;PMS7003;62863;52.062;23.764;2023-09-18T08:51:32;7;6.6;5.2
74430;PMS7003;62863;52.062;23.764;2023-09-18T08:56:04;8.4;7.8;5.8
74430;PMS7003;62863;52.062;23.764;2023-09-18T09:00:56;7.2;7.2;5.8
74430;PMS7003;62863;52.062;23.764;2023-09-18T09:06:32;16.6;12.6;7.4
74430;PMS7003;62863;52.062;23.764;2023-09-18T09:11:18;9;7.8;5.6
74430;PMS7003;62863;52.062;23.764;2023-09-18T09:16:30;9;8;5.8
74430;PMS7003;62863;52.062;23.764;2023-09-18T09:21:18;9;7.4;5.8
74430;PMS7003;62863;52.062;23.764;2023-09-18T09:26:12;10;9;6.3
74430;PMS7003;62863;52.062;23.764;2023-09-18T09:30:50;9.8;8.6;6.6
74430;PMS7003;62863;52.062;23.764;2023-09-18T09:36:04;8;7.2;5.6
74430;PMS7003;62863;52.062;23.764;2023-09-18T09:41:32;7.4;7.2;5.6
74430;PMS7003;62863;52.062;23.764;2023-09-18T09:46:03;8.4;7.4;5.2
74430;PMS7003;62863;52.062;23.764;2023-09-18T09:51:17;7.4;6.2;4.8
74430;PMS7003;62863;52.062;23.764;2023-09-18T09:56:39;11.8;8;5.4
74430;PMS7003;62863;52.062;23.764;2023-09-18T10:01:18;8.4;7.4;5.4
74430;PMS7003;62863;52.062;23.764;2023-09-18T10:06:33;7.2;6.6;4.8
74430;PMS7003;62863;52.062;23.764;2023-09-18T10:11:18;10;8.4;5
74430;PMS7003;62863;52.062;23.764;2023-09-18T10:15:54;7;6.8;5
74430;PMS7003;62863;52.062;23.764;2023-09-18T10:21:33;6.4;6.2;4.8
74430;PMS7003;62863;52.062;23.764;2023-09-18T10:26:10;9.3;7.3;5.3
74430;PMS7003;62863;52.062;23.764;2023-09-18T10:31:32;9.4;8;6
74430;PMS7003;62863;52.062;23.764;2023-09-18T10:36:10;10.8;8.2;6.2
74430;PMS7003;62863;52.062;23.764;2023-09-18T10:41:08;8.4;7.2;5
74430;PMS7003;62863;52.062;23.764;2023-09-18T10:46:24;8.6;7.6;5.2
74430;PMS7003;62863;52.062;23.764;2023-09-18T10:51:19;6.8;6.4;5
74430;PMS7003;62863;52.062;23.764;2023-09-18T10:56:32;11;9.2;6.8
74430;PMS7003;62863;52.062;23.764;2023-09-18T11:01:18;9.8;8.8;6.8
74430;PMS7003;62863;52.062;23.764;2023-09-18T11:06:04;9.4;9;6.2
74430;PMS7003;62863;52.062;23.764;2023-09-18T11:11:07;11.4;10;6.6
74430;PMS7003;62863;52.062;23.764;2023-09-18T11:15:50;10;9.2;6
74430;PMS7003;62863;52.062;23.764;2023-09-18T11:21:33;12.2;11.2;7.8
74430;PMS7003;62863;52.062;23.764;2023-09-18T11:26:10;11.8;10;7.5
74430;PMS7003;62863;52.062;23.764;2023-09-18T11:31:10;9.8;9;6.4
74430;PMS7003;62863;52.062;23.764;2023-09-18T11:36:31;11.2;10.4;7.4
74430;PMS7003;62863;52.062;23.764;2023-09-18T11:41:19;10.4;9;6.8
74430;PMS7003;62863;52.062;23.764;2023-09-18T11:46:30;10.2;9.6;7.6
74430;PMS7003;62863;52.062;23.764;2023-09-18T11:50:52;10.2;9.6;7.2
74430;PMS7003;62863;52.062;23.764;2023-09-18T11:56:02;11.2;9.8;6.8
74430;PMS7003;62863;52.062;23.764;2023-09-18T12:00:50;13.2;12;8.6
74430;PMS7003;62863;52.062;23.764;2023-09-18T12:06:08;11.6;10.2;7.4
74430;PMS7003;62863;52.062;23.764;2023-09-18T12:11:30;10;9.8;6.8
74430;PMS7003;62863;52.062;23.764;2023-09-18T12:16:10;10.4;10;7.4
74430;PMS7003;62863;52.062;23.764;2023-09-18T12:21:05;12.8;11.8;8
74430;PMS7003;62863;52.062;23.764;2023-09-18T12:26:20;12.3;11;9
74430;PMS7003;62863;52.062;23.764;2023-09-18T12:31:18;12.8;11.8;9
74430;PMS7003;62863;52.062;23.764;2023-09-18T12:36:30;15.4;14;10
74430;PMS7003;62863;52.062;23.764;2023-09-18T12:40:52;15.6;15;10.4
74430;PMS7003;62863;52.062;23.764;2023-09-18T12:45:56;14.4;14.4;10.8
74430;PMS7003;62863;52.062;23.764;2023-09-18T12:51:08;17.2;14.2;10.2
74430;PMS7003;62863;52.062;23.764;2023-09-18T12:56:18;17.4;16;11.4
74430;PMS7003;62863;52.062;23.764;2023-09-18T13:01:32;18;16.2;11.8
74430;PMS7003;62863;52.062;23.764;2023-09-18T13:06:11;17.2;14.8;10.6
74430;PMS7003;62863;52.062;23.764;2023-09-18T13:11:09;17.2;15.2;11
74430;PMS7003;62863;52.062;23.764;2023-09-18T13:16:22;16.4;15.6;11.2
74430;PMS7003;62863;52.062;23.764;2023-09-18T13:21:18;16.4;15.8;11.4
74430;PMS7003;62863;52.062;23.764;2023-09-18T13:26:16;17.2;15;11.2
74430;PMS7003;62863;52.062;23.764;2023-09-18T13:31:19;14.5;13.3;10.3
74430;PMS7003;62863;52.062;23.764;2023-09-18T13:36:02;15;12.6;9
74430;PMS7003;62863;52.062;23.764;2023-09-18T13:41:00;13;12.4;9.8
74430;PMS7003;62863;52.062;23.764;2023-09-18T13:46:10;14;12.8;8.8
74430;PMS7003;62863;52.062;23.764;2023-09-18T13:51:33;14.8;12.8;9.4
74430;PMS7003;62863;52.062;23.764;2023-09-18T13:56:18;14.2;12.6;9.8
74430;PMS7003;62863;52.062;23.764;2023-09-18T14:01:06;17.4;15.2;10.4
74430;PMS7003;62863;52.062;23.764;2023-09-18T14:06:12;16.8;15.6;11.6
74430;PMS7003;62863;52.062;23.764;2023-09-18T14:10:52;16.8;15;10.6
74430;PMS7003;62863;52.062;23.764;2023-09-18T14:16:32;15.8;14.4;10.8
74430;PMS7003;62863;52.062;23.764;2023-09-18T14:21:18;16.4;14.6;10.4
74430;PMS7003;62863;52.062;23.764;2023-09-18T14:25:51;17.8;14.8;10.6
74430;PMS7003;62863;52.062;23.764;2023-09-18T14:30:50;17.5;15.3;11
74430;PMS7003;62863;52.062;23.764;2023-09-18T14:36:08;20.6;17;12.4
74430;PMS7003;62863;52.062;23.764;2023-09-18T14:41:32;17.4;15.2;10.6
74430;PMS7003;62863;52.062;23.764;2023-09-18T14:45:52;16.6;14.6;10.2
74430;PMS7003;62863;52.062;23.764;2023-09-18T14:51:02;15;13.8;10.2
74430;PMS7003;62863;52.062;23.764;2023-09-18T14:56:24;16.4;15;10.2
74430;PMS7003;62863;52.062;23.764;2023-09-18T15:01:32;18.2;16.6;11.4
74430;PMS7003;62863;52.062;23.764;2023-09-18T15:06:30;16.6;15.6;11.8
74430;PMS7003;62863;52.062;23.764;2023-09-18T15:10:56;17.4;16;11
74430;PMS7003;62863;52.062;23.764;2023-09-18T15:15:56;18;16;11.2
74430;PMS7003;62863;52.062;23.764;2023-09-18T15:20:50;20;17.6;12.6
74430;PMS7003;62863;52.062;23.764;2023-09-18T15:26:10;19.8;18.4;13.6
74430;PMS7003;62863;52.062;23.764;2023-09-18T15:31:32;16.3;16.3;12.5
74430;PMS7003;62863;52.062;23.764;2023-09-18T15:36:30;18.4;17;12.2
74430;PMS7003;62863;52.062;23.764;2023-09-18T15:40:50;24.8;21.4;13.8
74430;PMS7003;62863;52.062;23.764;2023-09-18T15:45:58;19.8;17.8;11
74430;PMS7003;62863;52.062;23.764;2023-09-18T15:51:18;18.6;16.2;11.4
74430;PMS7003;62863;52.062;23.764;2023-09-18T15:56:32;18.8;16.4;11.6
74430;PMS7003;62863;52.062;23.764;2023-09-18T16:01:00;18.4;17.8;12
74430;PMS7003;62863;52.062;23.764;2023-09-18T16:05:56;19;17.2;11.8
74430;PMS7003;62863;52.062;23.764;2023-09-18T16:10:50;22;19.4;14.2
74430;PMS7003;62863;52.062;23.764;2023-09-18T16:16:10;27.2;23.4;15
74430;PMS7003;62863;52.062;23.764;2023-09-18T16:21:32;25.6;23.2;15.6
74430;PMS7003;62863;52.062;23.764;2023-09-18T16:26:24;20.6;19.4;13.2
74430;PMS7003;62863;52.062;23.764;2023-09-18T16:31:06;25;21.8;13.8
74430;PMS7003;62863;52.062;23.764;2023-09-18T16:36:24;19.2;17.8;12.2
74430;PMS7003;62863;52.062;23.764;2023-09-18T16:41:33;21;19.4;13.2
74430;PMS7003;62863;52.062;23.764;2023-09-18T16:46:32;21.4;20;14.2
74430;PMS7003;62863;52.062;23.764;2023-09-18T16:50:50;28.8;24.2;16.2
74430;PMS7003;62863;52.062;23.764;2023-09-18T16:55:50;27;24.4;16.8
74430;PMS7003;62863;52.062;23.764;2023-09-18T17:01:00;32.8;27.8;17.8
74430;PMS7003;62863;52.062;23.764;2023-09-18T17:05:50;34.8;29.4;19
74430;PMS7003;62863;52.062;23.764;2023-09-18T17:11:33;32;28;18
74430;PMS7003;62863;52.062;23.764;2023-09-18T17:15:52;36.8;30;20
74430;PMS7003;62863;52.062;23.764;2023-09-18T17:20:51;34.6;30;20.4
74430;PMS7003;62863;52.062;23.764;2023-09-18T17:26:25;35.2;29.8;19.6
74430;PMS7003;62863;52.062;23.764;2023-09-18T17:31:18;36.5;28.5;19
74430;PMS7003;62863;52.062;23.764;2023-09-18T17:36:16;27.4;26.4;18.6
74430;PMS7003;62863;52.062;23.764;2023-09-18T17:40:56;30.4;25.4;17.6
74430;PMS7003;62863;52.062;23.764;2023-09-18T17:45:50;31.6;27.4;18.4
74430;PMS7003;62863;52.062;23.764;2023-09-18T17:50:56;31.6;27.6;19.4
74430;PMS7003;62863;52.062;23.764;2023-09-18T17:56:10;28.4;26;18
74430;PMS7003;62863;52.062;23.764;2023-09-18T18:01:33;29.2;26.8;18.6
74430;PMS7003;62863;52.062;23.764;2023-09-18T18:06:25;28.4;24.2;17
74430;PMS7003;62863;52.062;23.764;2023-09-18T18:11:21;28.2;24.4;16.8
74430;PMS7003;62863;52.062;23.764;2023-09-18T18:16:25;28.6;25.2;17.4
74430;PMS7003;62863;52.062;23.764;2023-09-18T18:21:04;29.6;24;17.2
74430;PMS7003;62863;52.062;23.764;2023-09-18T18:26:32;23.8;22.8;16.4
74430;PMS7003;62863;52.062;23.764;2023-09-18T18:30:50;25.8;23.2;16.8
74430;PMS7003;62863;52.062;23.764;2023-09-18T18:35:50;28.5;25.3;18
74430;PMS7003;62863;52.062;23.764;2023-09-18T18:40:57;27.6;24.4;16.6
74430;PMS7003;62863;52.062;23.764;2023-09-18T18:46:33;30.4;26;17.6
74430;PMS7003;62863;52.062;23.764;2023-09-18T18:51:19;30.4;27.8;19.4
74430;PMS7003;62863;52.062;23.764;2023-09-18T18:56:17;32.8;29.6;20.4
74430;PMS7003;62863;52.062;23.764;2023-09-18T19:01:13;32.4;28.4;19.2
74430;PMS7003;62863;52.062;23.764;2023-09-18T19:06:03;31.2;27.4;19
74430;PMS7003;62863;52.062;23.764;2023-09-18T19:11:33;31.4;28;19
74430;PMS7003;62863;52.062;23.764;2023-09-18T19:16:03;30;27.4;18.8
74430;PMS7003;62863;52.062;23.764;2023-09-18T19:21:01;28.4;25.4;17.8
74430;PMS7003;62863;52.062;23.764;2023-09-18T19:26:10;29.8;27;17.8
74430;PMS7003;62863;52.062;23.764;2023-09-18T19:31:19;29.2;26.4;18.4
74430;PMS7003;62863;52.062;23.764;2023-09-18T19:36:32;26.5;25.5;18
74430;PMS7003;62863;52.062;23.764;2023-09-18T19:41:19;30;25.6;17
74430;PMS7003;62863;52.062;23.764;2023-09-18T19:46:17;32.4;29.2;20.2
74430;PMS7003;62863;52.062;23.764;2023-09-18T19:51:07;31;27.8;18.2
74430;PMS7003;62863;52.062;23.764;2023-09-18T19:56:03;28.4;25.8;19
74430;PMS7003;62863;52.062;23.764;2023-09-18T20:01:19;27.8;26.8;18.2
74430;PMS7003;62863;52.062;23.764;2023-09-18T20:05:49;33.8;30.8;20.6
74430;PMS7003;62863;52.062;23.764;2023-09-18T20:10:51;30.8;27.2;18.6
74430;PMS7003;62863;52.062;23.764;2023-09-18T20:15:51;30;27.8;19.2
74430;PMS7003;62863;52.062;23.764;2023-09-18T20:21:19;29.6;26.4;18.2
74430;PMS7003;62863;52.062;23.764;2023-09-18T20:26:31;29.8;27.4;18.4
74430;PMS7003;62863;52.062;23.764;2023-09-18T20:31:19;31.4;27.6;18.4
74430;PMS7003;62863;52.062;23.764;2023-09-18T20:36:15;28.5;25.3;17.5
74430;PMS7003;62863;52.062;23.764;2023-09-18T20:40:57;29.4;24.2;16.6
74430;PMS7003;62863;52.062;23.764;2023-09-18T20:45:57;28.4;25.8;17.2
74430;PMS7003;62863;52.062;23.764;2023-09-18T20:51:33;28.6;25.4;18
74430;PMS7003;62863;52.062;23.764;2023-09-18T20:55:57;28.6;26;17.6
74430;PMS7003;62863;52.062;23.764;2023-09-18T21:00:57;27.6;26.4;17.6
74430;PMS7003;62863;52.062;23.764;2023-09-18T21:05:57;29.2;25.6;18.2
74430;PMS7003;62863;52.062;23.764;2023-09-18T21:11:33;27.8;24.4;16.6
74430;PMS7003;62863;52.062;23.764;2023-09-18T21:16:33;29.6;26.2;17.6
74430;PMS7003;62863;52.062;23.764;2023-09-18T21:21:19;31.4;25.2;17.4
74430;PMS7003;62863;52.062;23.764;2023-09-18T21:26:17;25.2;23.4;16.2
74430;PMS7003;62863;52.062;23.764;2023-09-18T21:31:23;27.6;23.4;16.6
74430;PMS7003;62863;52.062;23.764;2023-09-18T21:36:11;26.5;23.5;16.3
74430;PMS7003;62863;52.062;23.764;2023-09-18T21:41:33;28;23.4;16.8
74430;PMS7003;62863;52.062;23.764;2023-09-18T21:46:03;27.2;25.2;17.8
74430;PMS7003;62863;52.062;23.764;2023-09-18T21:50:51;28.4;23.2;16
74430;PMS7003;62863;52.062;23.764;2023-09-18T21:55:57;29;27;19
74430;PMS7003;62863;52.062;23.764;2023-09-18T22:01:19;30.6;26.2;17.4
74430;PMS7003;62863;52.062;23.764;2023-09-18T22:06:33;31.8;26.6;18.4
74430;PMS7003;62863;52.062;23.764;2023-09-18T22:11:19;27.8;26;18.2
74430;PMS7003;62863;52.062;23.764;2023-09-18T22:16:11;31;28;19.8
74430;PMS7003;62863;52.062;23.764;2023-09-18T22:20:57;31.2;27.4;17.4
74430;PMS7003;62863;52.062;23.764;2023-09-18T22:25:57;155.8;129;64.6
74430;PMS7003;62863;52.062;23.764;2023-09-18T22:31:33;154.6;133.6;71.8
74430;PMS7003;62863;52.062;23.764;2023-09-18T22:36:03;80;68.3;39.8
74430;PMS7003;62863;52.062;23.764;2023-09-18T22:56:03;22;20.8;15.8
74430;PMS7003;62863;52.062;23.764;2023-09-18T23:01:19;25.2;21.6;15
74430;PMS7003;62863;52.062;23.764;2023-09-18T23:06:11;26.2;23.4;16.4
74430;PMS7003;62863;52.062;23.764;2023-09-18T23:11:09;25.4;22.2;14.8
74430;PMS7003;62863;52.062;23.764;2023-09-18T23:16:03;24.4;22.4;15.2
74430;PMS7003;62863;52.062;23.764;2023-09-18T23:21:33;24;21.6;14.6
74430;PMS7003;62863;52.062;23.764;2023-09-18T23:25:53;25.2;22.6;16
74430;PMS7003;62863;52.062;23.764;2023-09-18T23:30:51;23.6;21.8;16
74430;PMS7003;62863;52.062;23.764;2023-09-18T23:36:05;25;21.6;15.8
74430;PMS7003;62863;52.062;23.764;2023-09-18T23:40:53;24.5;22;15.8
74430;PMS7003;62863;52.062;23.764;2023-09-18T23:46:33;27.6;24.2;16
74430;PMS7003;62863;52.062;23.764;2023-09-18T23:51:07;25.2;22.8;15.4
74430;PMS7003;62863;52.062;23.764;2023-09-18T23:55:53;26.4;23;15
